createdAt,value
2022-08-23T00:01:24.263Z,1.67
2022-08-23T00:03:56.176Z,1.40
2022-08-23T00:06:24.585Z,1.70
2022-08-23T00:08:54.334Z,1.33
2022-08-23T00:11:30.355Z,1.30
2022-08-23T00:14:00.619Z,1.47
2022-08-23T00:16:29.391Z,1.20
2022-08-23T00:18:59.247Z,1.33
2022-08-23T00:21:27.927Z,1.30
2022-08-23T00:23:56.161Z,1.30
2022-08-23T00:26:25.630Z,1.37
2022-08-23T00:28:53.851Z,1.17
2022-08-23T00:31:22.022Z,1.03
2022-08-23T00:33:50.147Z,1.60
2022-08-23T00:36:19.611Z,1.50
2022-08-23T00:38:47.697Z,1.90
2022-08-23T00:41:15.800Z,1.47
2022-08-23T00:44:01.682Z,1.97
2022-08-23T00:46:59.262Z,1.70
2022-08-23T00:49:28.051Z,2.07
2022-08-23T00:52:06.555Z,2.03
2022-08-23T00:54:37.713Z,1.97
2022-08-23T00:57:09.140Z,1.73
2022-08-23T00:59:37.540Z,1.63
2022-08-23T01:02:09.699Z,1.30
2022-08-23T01:04:41.075Z,1.57
2022-08-23T01:07:17.259Z,1.60
2022-08-23T01:09:47.510Z,1.80
2022-08-23T01:12:30.434Z,1.80
2022-08-23T01:15:05.002Z,1.70
2022-08-23T01:17:43.697Z,2.03
2022-08-23T01:20:15.072Z,1.90
2022-08-23T01:23:03.158Z,1.73
2022-08-23T01:25:34.960Z,1.63
2022-08-23T01:28:03.215Z,1.30
2022-08-23T01:30:34.365Z,2.30
2022-08-23T01:33:05.417Z,1.80
2022-08-23T01:35:39.179Z,1.77
2022-08-23T01:38:08.647Z,1.90
2022-08-23T01:40:38.575Z,1.77
2022-08-23T01:43:08.567Z,2.00
2022-08-23T01:45:39.695Z,1.97
2022-08-23T01:48:08.987Z,1.83
2022-08-23T01:50:40.320Z,1.90
2022-08-23T01:53:09.158Z,1.77
2022-08-23T01:55:40.542Z,1.70
2022-08-23T01:58:08.943Z,1.90
2022-08-23T02:00:41.363Z,1.97
2022-08-23T02:03:12.435Z,2.40
2022-08-23T02:05:41.170Z,2.20
2022-08-23T02:08:30.429Z,1.70
2022-08-23T02:11:01.553Z,2.00
2022-08-23T02:13:29.800Z,1.90
2022-08-23T02:15:59.539Z,1.70
2022-08-23T02:18:27.967Z,2.10
2022-08-23T02:20:56.092Z,2.00
2022-08-23T02:23:25.115Z,2.07
2022-08-23T02:25:53.353Z,1.93
2022-08-23T02:28:25.543Z,1.80
2022-08-23T02:30:54.008Z,2.00
2022-08-23T02:33:22.163Z,2.13
2022-08-23T02:35:50.595Z,1.93
2022-08-23T02:38:19.400Z,1.80
2022-08-23T02:40:52.987Z,1.97
2022-08-23T02:43:30.557Z,2.57
2022-08-23T02:45:59.067Z,2.60
2022-08-23T02:48:27.843Z,2.67
2022-08-23T02:51:04.693Z,2.27
2022-08-23T02:53:33.581Z,2.20
2022-08-23T02:56:06.025Z,2.37
2022-08-23T02:58:46.674Z,2.63
2022-08-23T03:01:25.564Z,2.20
2022-08-23T03:03:55.873Z,2.67
2022-08-23T03:06:26.331Z,2.53
2022-08-23T03:08:54.753Z,2.47
2022-08-23T03:11:23.518Z,2.43
2022-08-23T03:13:56.280Z,2.20
2022-08-23T03:16:25.651Z,2.97
2022-08-23T03:18:54.087Z,2.10
2022-08-23T03:21:23.218Z,2.50
2022-08-23T03:23:51.883Z,2.43
2022-08-23T03:26:20.380Z,2.23
2022-08-23T03:28:48.876Z,2.13
2022-08-23T03:31:19.101Z,2.77
2022-08-23T03:34:01.048Z,2.20
2022-08-23T03:36:29.262Z,2.33
2022-08-23T03:38:59.323Z,2.70
2022-08-23T03:41:28.487Z,2.60
2022-08-23T03:43:57.579Z,2.30
2022-08-23T03:46:33.775Z,2.70
2022-08-23T03:49:03.775Z,2.57
2022-08-23T03:51:43.340Z,2.63
2022-08-23T03:54:11.962Z,2.50
2022-08-23T03:56:52.583Z,2.70
2022-08-23T03:59:21.364Z,2.10
2022-08-23T04:01:50.892Z,2.60
2022-08-23T04:04:19.100Z,2.67
2022-08-23T04:07:05.716Z,2.90
2022-08-23T04:09:34.250Z,2.77
2022-08-23T04:12:02.574Z,2.13
2022-08-23T04:14:30.755Z,2.33
2022-08-23T04:17:00.231Z,2.80
2022-08-23T04:19:28.669Z,2.80
2022-08-23T04:22:07.128Z,2.50
2022-08-23T04:24:42.364Z,2.40
2022-08-23T04:27:11.485Z,2.60
2022-08-23T04:29:39.942Z,2.60
2022-08-23T04:32:12.559Z,2.60
2022-08-23T04:34:45.325Z,2.63
2022-08-23T04:37:18.535Z,2.33
2022-08-23T04:40:04.178Z,2.70
2022-08-23T04:42:41.662Z,2.40
2022-08-23T04:45:11.552Z,2.93
2022-08-23T04:47:44.954Z,2.43
2022-08-23T04:50:13.591Z,2.60
2022-08-23T04:53:00.432Z,2.30
2022-08-23T04:55:30.612Z,2.27
2022-08-23T04:58:06.315Z,3.07
2022-08-23T05:00:41.862Z,2.80
2022-08-23T05:03:12.403Z,3.07
2022-08-23T05:05:41.862Z,2.40
2022-08-23T05:08:10.315Z,2.27
2022-08-23T05:10:39.625Z,3.03
2022-08-23T05:13:07.852Z,2.37
2022-08-23T05:15:35.997Z,2.37
2022-08-23T05:18:06.692Z,2.47
2022-08-23T05:20:38.546Z,2.60
2022-08-23T05:23:06.850Z,2.60
2022-08-23T05:25:53.567Z,2.53
2022-08-23T05:28:39.876Z,3.33
2022-08-23T05:31:11.517Z,2.17
2022-08-23T05:33:51.171Z,2.73
2022-08-23T05:36:28.056Z,2.80
2022-08-23T05:38:56.322Z,2.90
2022-08-23T05:41:33.387Z,2.53
2022-08-23T05:44:08.819Z,2.30
2022-08-23T05:46:37.903Z,2.40
2022-08-23T05:49:29.190Z,2.53
2022-08-23T05:51:59.168Z,2.40
2022-08-23T05:54:31.322Z,3.03
2022-08-23T05:57:17.164Z,2.80
2022-08-23T05:59:45.488Z,2.50
2022-08-23T06:02:13.589Z,3.40
2022-08-23T06:04:41.996Z,2.77
2022-08-23T06:07:11.999Z,2.90
2022-08-23T06:09:40.782Z,3.03
2022-08-23T06:12:10.696Z,3.37
2022-08-23T06:14:39.446Z,2.70
2022-08-23T06:17:08.659Z,3.00
2022-08-23T06:19:37.171Z,3.20
2022-08-23T06:22:23.528Z,2.93
2022-08-23T06:24:51.711Z,3.53
2022-08-23T06:27:19.936Z,3.40
2022-08-23T06:29:49.143Z,2.40
2022-08-23T06:32:32.275Z,4.07
2022-08-23T06:35:39.257Z,2.70
2022-08-23T06:38:22.551Z,3.40
2022-08-23T06:41:12.787Z,3.13
2022-08-23T06:43:53.904Z,3.00
2022-08-23T06:46:33.158Z,3.23
2022-08-23T06:49:05.119Z,3.10
2022-08-23T06:51:36.482Z,3.23
2022-08-23T06:54:22.037Z,3.57
2022-08-23T06:57:02.400Z,3.10
2022-08-23T06:59:33.549Z,3.40
2022-08-23T07:02:15.642Z,3.80
2022-08-23T07:04:59.371Z,3.73
2022-08-23T07:07:50.980Z,3.10
2022-08-23T07:10:21.465Z,3.23
2022-08-23T07:12:50.119Z,3.40
2022-08-23T07:15:21.288Z,3.50
2022-08-23T07:17:50.091Z,3.83
2022-08-23T07:20:19.119Z,3.33
2022-08-23T07:22:47.367Z,2.80
2022-08-23T07:25:15.566Z,3.23
2022-08-23T07:27:54.382Z,3.30
2022-08-23T07:30:23.354Z,4.27
2022-08-23T07:32:52.881Z,3.60
2022-08-23T07:35:36.823Z,3.33
2022-08-23T07:38:08.059Z,3.50
2022-08-23T07:40:38.985Z,3.07
2022-08-23T07:43:09.672Z,3.20
2022-08-23T07:45:40.730Z,3.20
2022-08-23T07:48:14.396Z,3.30
2022-08-23T07:51:16.762Z,2.90
2022-08-23T07:53:46.189Z,2.87
2022-08-23T07:56:18.665Z,2.80
2022-08-23T07:59:07.844Z,3.33
2022-08-23T08:01:58.822Z,2.63
2022-08-23T08:04:27.844Z,2.97
2022-08-23T08:07:17.586Z,2.47
2022-08-23T08:09:47.241Z,3.20
2022-08-23T08:12:16.564Z,2.90
2022-08-23T08:14:48.263Z,3.13
2022-08-23T08:17:18.429Z,3.30
2022-08-23T08:20:06.440Z,3.10
2022-08-23T08:22:56.406Z,2.83
2022-08-23T08:25:28.594Z,2.80
2022-08-23T08:27:59.465Z,2.77
2022-08-23T08:30:29.193Z,3.17
2022-08-23T08:32:57.374Z,3.13
2022-08-23T08:35:26.268Z,2.30
2022-08-23T08:37:54.542Z,2.70
2022-08-23T08:40:31.318Z,2.60
2022-08-23T08:43:26.195Z,2.30
2022-08-23T08:46:06.289Z,2.87
2022-08-23T08:48:41.773Z,2.40
2022-08-23T08:51:25.772Z,3.30
2022-08-23T08:53:55.885Z,2.57
2022-08-23T08:56:35.351Z,2.57
2022-08-23T08:59:21.595Z,2.80
2022-08-23T09:01:52.338Z,2.90
2022-08-23T09:04:29.866Z,3.13
2022-08-23T09:07:07.791Z,2.67
2022-08-23T09:10:15.223Z,2.70
2022-08-23T09:13:05.320Z,3.07
2022-08-23T09:15:42.371Z,2.77
2022-08-23T09:18:14.070Z,2.30
2022-08-23T09:20:44.302Z,2.70
2022-08-23T09:23:18.790Z,2.53
2022-08-23T09:25:53.359Z,2.50
2022-08-23T09:28:24.998Z,2.47
2022-08-23T09:30:56.306Z,2.30
2022-08-23T09:33:39.331Z,2.47
2022-08-23T09:36:18.967Z,2.77
2022-08-23T09:38:55.371Z,2.40
2022-08-23T09:41:27.739Z,2.80
2022-08-23T09:44:01.693Z,2.80
2022-08-23T09:46:32.566Z,2.93
2022-08-23T09:49:24.976Z,2.30
2022-08-23T09:51:56.860Z,2.73
2022-08-23T09:54:31.956Z,2.37
2022-08-23T09:57:03.062Z,2.53
2022-08-23T09:59:42.401Z,2.23
2022-08-23T10:02:25.218Z,2.53
2022-08-23T10:05:02.950Z,2.30
2022-08-23T10:07:40.414Z,2.03
2022-08-23T10:10:23.822Z,2.17
2022-08-23T10:12:56.511Z,1.93
2022-08-23T10:15:36.180Z,1.83
2022-08-23T10:18:09.544Z,1.80
2022-08-23T10:20:48.254Z,1.77
2022-08-23T10:23:24.911Z,1.70
2022-08-23T10:25:58.484Z,1.67
2022-08-23T10:28:56.196Z,2.10
2022-08-23T10:31:38.911Z,1.45
2022-08-23T10:34:25.728Z,1.90
2022-08-23T10:37:14.322Z,1.60
2022-08-23T10:39:48.429Z,1.50
2022-08-23T10:42:25.716Z,1.73
2022-08-23T10:44:59.155Z,1.67
2022-08-23T10:47:37.151Z,1.60
2022-08-23T10:50:12.352Z,1.63
2022-08-23T10:52:51.020Z,1.50
2022-08-23T10:55:35.715Z,1.57
2022-08-23T10:58:07.997Z,1.50
2022-08-23T11:00:38.203Z,1.43
2022-08-23T11:03:15.797Z,1.43
2022-08-23T11:05:44.041Z,1.60
2022-08-23T11:08:34.783Z,1.50
2022-08-23T11:11:06.234Z,1.60
2022-08-23T11:13:36.588Z,1.30
2022-08-23T11:16:16.239Z,1.40
2022-08-23T11:18:48.524Z,1.50
2022-08-23T11:21:50.197Z,1.40
2022-08-23T11:24:51.216Z,1.40
2022-08-23T11:27:34.634Z,1.50
2022-08-23T11:30:44.183Z,1.30
2022-08-23T11:33:21.657Z,1.50
2022-08-23T11:35:52.955Z,1.20
2022-08-23T11:38:56.023Z,1.33
2022-08-23T11:41:27.505Z,1.70
2022-08-23T11:44:18.383Z,1.53
2022-08-23T11:47:04.330Z,1.30
2022-08-23T11:50:12.903Z,1.60
2022-08-23T11:53:19.949Z,1.42
2022-08-23T11:56:11.303Z,1.30
2022-08-23T11:58:58.947Z,1.50
2022-08-23T12:01:34.108Z,1.50
2022-08-23T12:04:10.388Z,1.75
2022-08-23T12:06:51.248Z,1.38
2022-08-23T12:09:52.407Z,1.40
2022-08-23T12:12:46.981Z,1.33
2022-08-23T12:15:18.351Z,1.33
2022-08-23T12:18:09.316Z,2.03
2022-08-23T12:20:38.879Z,1.43
2022-08-23T12:23:16.298Z,1.50
2022-08-23T12:25:44.900Z,1.50
2022-08-23T12:28:31.499Z,1.53
2022-08-23T12:31:07.966Z,1.50
2022-08-23T12:33:44.379Z,1.57
2022-08-23T12:36:19.647Z,1.43
2022-08-23T12:38:58.087Z,1.30
2022-08-23T12:41:29.147Z,1.30
2022-08-23T12:44:00.970Z,1.30
2022-08-23T12:46:38.248Z,1.10
2022-08-23T12:49:08.178Z,1.40
2022-08-23T12:51:43.088Z,1.23
2022-08-23T12:54:16.617Z,1.30
2022-08-23T12:56:48.598Z,1.90
2022-08-23T12:59:34.471Z,1.30
2022-08-23T13:02:07.734Z,1.40
2022-08-23T13:04:38.972Z,1.30
2022-08-23T13:07:11.069Z,1.43
2022-08-23T13:09:41.792Z,1.33
2022-08-23T13:12:11.691Z,1.10
2022-08-23T13:14:46.340Z,1.27
2022-08-23T13:17:23.040Z,1.10
2022-08-23T13:19:53.000Z,1.30
2022-08-23T13:22:25.146Z,1.47
2022-08-23T13:27:56.720Z,1.00
2022-08-23T13:30:27.007Z,1.30
2022-08-23T13:33:20.245Z,1.40
2022-08-23T13:35:49.909Z,1.20
2022-08-23T13:38:23.161Z,1.23
2022-08-23T13:41:01.047Z,1.00
2022-08-23T13:43:34.851Z,1.33
2022-08-23T13:46:15.800Z,1.33
2022-08-23T13:48:51.566Z,1.07
2022-08-23T13:51:25.911Z,1.30
2022-08-23T13:53:54.617Z,1.00
2022-08-23T13:56:23.963Z,1.30
2022-08-23T13:58:57.726Z,1.00
2022-08-23T14:01:26.803Z,1.30
2022-08-23T14:03:56.474Z,1.67
2022-08-23T14:06:25.547Z,1.20
2022-08-23T14:08:53.708Z,1.20
2022-08-23T14:11:21.848Z,1.10
2022-08-23T14:13:51.026Z,1.10
2022-08-23T14:16:40.573Z,1.20
2022-08-23T14:19:16.560Z,1.03
2022-08-23T14:22:01.225Z,1.40
2022-08-23T14:24:29.882Z,1.20
2022-08-23T14:26:58.706Z,1.10
2022-08-23T14:29:29.092Z,1.00
2022-08-23T14:31:58.727Z,1.20
2022-08-23T14:34:29.370Z,1.23
2022-08-23T14:39:49.313Z,1.47
2022-08-23T14:42:20.236Z,1.10
2022-08-23T14:44:48.364Z,1.10
2022-08-23T14:47:16.488Z,1.17
2022-08-23T14:49:49.037Z,1.30
2022-08-23T14:52:20.203Z,1.20
2022-08-23T14:54:49.545Z,1.10
2022-08-23T14:57:17.901Z,1.37
2022-08-23T14:59:46.404Z,1.00
2022-08-23T15:02:20.182Z,1.13
2022-08-23T15:04:49.683Z,1.13
2022-08-23T15:07:19.124Z,1.03
2022-08-23T15:09:48.620Z,1.00
2022-08-23T15:15:06.992Z,1.20
2022-08-23T15:17:38.063Z,1.40
2022-08-23T15:20:08.561Z,1.30
2022-08-23T15:22:39.919Z,1.10
2022-08-23T15:25:12.731Z,1.03
2022-08-23T15:27:40.979Z,1.10
2022-08-23T15:30:10.291Z,1.10
2022-08-23T15:32:38.439Z,1.00
2022-08-23T15:35:11.334Z,1.17
2022-08-23T15:37:40.116Z,1.20
2022-08-23T15:40:12.909Z,1.30
2022-08-23T15:42:42.827Z,1.10
2022-08-23T15:45:12.009Z,0.97
2022-08-23T15:47:47.378Z,2.07
2022-08-23T15:50:18.651Z,1.70
2022-08-23T15:52:46.793Z,1.70
2022-08-23T15:55:15.742Z,1.00
2022-08-23T15:57:47.313Z,1.10
2022-08-23T16:00:18.088Z,0.90
2022-08-23T16:03:12.507Z,1.20
2022-08-23T16:05:37.719Z,1.30
2022-08-23T16:08:07.550Z,1.17
2022-08-23T16:10:35.908Z,1.57
2022-08-23T16:13:04.446Z,1.13
2022-08-23T16:15:32.796Z,1.17
2022-08-23T16:18:01.115Z,1.03
2022-08-23T16:20:29.263Z,1.20
2022-08-23T16:22:58.883Z,1.20
2022-08-23T16:25:27.233Z,1.10
2022-08-23T16:27:55.401Z,1.07
2022-08-23T16:30:23.867Z,1.20
2022-08-23T16:32:52.088Z,1.37
2022-08-23T16:35:20.290Z,1.10
2022-08-23T16:37:48.599Z,1.10
2022-08-23T16:40:18.334Z,0.83
2022-08-23T16:42:46.428Z,1.00
2022-08-23T16:45:14.754Z,1.30
2022-08-23T16:47:45.006Z,1.00
2022-08-23T16:50:13.811Z,1.03
2022-08-23T16:52:41.941Z,1.03
2022-08-23T16:55:12.374Z,0.90
2022-08-23T16:57:42.256Z,1.03
2022-08-23T17:00:12.919Z,1.00
2022-08-23T17:02:41.878Z,1.20
2022-08-23T17:05:13.595Z,1.37
2022-08-23T17:11:03.031Z,0.90
2022-08-23T17:13:33.248Z,1.10
2022-08-23T17:16:16.044Z,1.00
2022-08-23T17:18:44.587Z,1.20
2022-08-23T17:21:12.694Z,1.03
2022-08-23T17:23:41.035Z,1.10
2022-08-23T17:26:09.347Z,1.20
2022-08-23T17:28:38.958Z,0.90
2022-08-23T17:31:07.294Z,1.00
2022-08-23T17:33:35.426Z,1.10
2022-08-23T17:36:04.645Z,0.90
2022-08-23T17:38:32.679Z,1.20
2022-08-23T17:41:01.408Z,1.00
2022-08-23T17:43:30.011Z,1.00
2022-08-23T17:45:59.494Z,0.83
2022-08-23T17:48:28.788Z,0.90
2022-08-23T17:50:57.231Z,1.30
2022-08-23T17:53:25.295Z,0.87
2022-08-23T17:55:53.371Z,1.10
2022-08-23T17:58:21.421Z,0.90
2022-08-23T18:00:51.243Z,1.10
2022-08-23T18:03:20.714Z,1.10
2022-08-23T18:05:49.043Z,1.00
2022-08-23T18:08:17.185Z,1.00
2022-08-23T18:10:45.452Z,0.93
2022-08-23T18:13:13.636Z,1.17
2022-08-23T18:15:41.746Z,0.87
2022-08-23T18:18:09.860Z,1.00
2022-08-23T18:20:39.375Z,0.90
2022-08-23T18:23:07.907Z,1.20
2022-08-23T18:25:36.682Z,1.00
2022-08-23T18:28:06.940Z,1.07
2022-08-23T18:30:36.618Z,1.00
2022-08-23T18:33:06.334Z,1.00
2022-08-23T18:35:35.019Z,1.10
2022-08-23T18:38:04.604Z,0.80
2022-08-23T18:40:45.072Z,1.20
2022-08-23T18:43:14.817Z,1.03
2022-08-23T18:45:43.048Z,0.90
2022-08-23T18:48:12.284Z,1.10
2022-08-23T18:50:41.004Z,1.30
2022-08-23T18:53:12.460Z,1.17
2022-08-23T18:55:42.007Z,1.00
2022-08-23T18:58:10.475Z,1.00
2022-08-23T19:00:40.168Z,1.00
2022-08-23T19:03:08.863Z,1.17
2022-08-23T19:05:41.435Z,0.93
2022-08-23T19:08:13.462Z,1.27
2022-08-23T19:10:42.321Z,0.90
2022-08-23T19:13:11.092Z,1.10
2022-08-23T19:15:40.384Z,1.00
2022-08-23T19:18:10.833Z,1.10
2022-08-23T19:20:39.175Z,1.00
2022-08-23T19:23:07.489Z,0.90
2022-08-23T19:25:38.468Z,0.70
2022-08-23T19:28:07.266Z,0.97
2022-08-23T19:30:35.627Z,1.20
2022-08-23T19:33:04.698Z,1.00
2022-08-23T19:35:33.274Z,1.07
2022-08-23T19:38:01.507Z,1.13
2022-08-23T19:40:29.671Z,1.13
2022-08-23T19:43:00.392Z,1.03
2022-08-23T19:45:29.519Z,1.20
2022-08-23T19:48:00.783Z,1.10
2022-08-23T19:50:29.428Z,1.20
2022-08-23T19:52:57.637Z,1.20
2022-08-23T19:55:27.328Z,1.07
2022-08-23T19:57:56.739Z,1.10
2022-08-23T20:00:27.727Z,1.53
2022-08-23T20:02:56.147Z,1.00
2022-08-23T20:05:24.270Z,1.20
2022-08-23T20:07:52.423Z,0.93
2022-08-23T20:10:22.711Z,1.40
2022-08-23T20:12:50.760Z,1.20
2022-08-23T20:15:19.082Z,1.10
2022-08-23T20:17:48.633Z,0.90
2022-08-23T20:20:16.810Z,1.40
2022-08-23T20:23:02.852Z,1.17
2022-08-23T20:25:31.431Z,1.10
2022-08-23T20:27:59.723Z,1.10
2022-08-23T20:30:27.759Z,1.10
2022-08-23T20:32:57.327Z,1.70
2022-08-23T20:35:25.670Z,1.30
2022-08-23T20:37:53.748Z,1.07
2022-08-23T20:40:23.103Z,1.13
2022-08-23T20:42:51.683Z,1.00
2022-08-23T20:45:20.204Z,1.23
2022-08-23T20:47:48.358Z,1.60
2022-08-23T20:50:17.916Z,1.47
2022-08-23T20:52:46.930Z,1.33
2022-08-23T20:55:15.306Z,1.10
2022-08-23T20:57:43.447Z,1.10
2022-08-23T21:00:12.727Z,1.00
2022-08-23T21:02:40.824Z,1.13
2022-08-23T21:05:09.587Z,1.17
2022-08-23T21:07:40.618Z,1.20
2022-08-23T21:10:11.035Z,1.30
2022-08-23T21:12:39.410Z,1.30
2022-08-23T21:15:10.961Z,1.13
2022-08-23T21:17:39.272Z,1.37
2022-08-23T21:20:08.294Z,1.30
2022-08-23T21:22:36.428Z,1.27
2022-08-23T21:25:06.824Z,1.00
2022-08-23T21:27:34.963Z,1.13
2022-08-23T21:30:03.503Z,1.40
2022-08-23T21:32:31.715Z,1.10
2022-08-23T21:35:00.106Z,1.40
2022-08-23T21:37:28.939Z,1.00
2022-08-23T21:39:57.069Z,1.17
2022-08-23T21:42:26.559Z,1.43
2022-08-23T21:44:54.723Z,1.20
2022-08-23T21:47:23.493Z,1.30
2022-08-23T21:49:51.624Z,1.17
2022-08-23T21:52:19.702Z,1.30
2022-08-23T21:54:48.285Z,1.13
2022-08-23T21:57:16.498Z,1.20
2022-08-23T21:59:46.032Z,1.40
2022-08-23T22:02:14.189Z,1.10
2022-08-23T22:04:42.475Z,1.10
2022-08-23T22:07:10.574Z,1.10
2022-08-23T22:09:38.936Z,1.43
2022-08-23T22:12:09.584Z,1.23
2022-08-23T22:14:38.243Z,1.10
2022-08-23T22:17:07.660Z,1.10
2022-08-23T22:19:35.762Z,1.20
2022-08-23T22:22:06.199Z,1.30
2022-08-23T22:24:34.270Z,1.20
2022-08-23T22:27:02.336Z,1.10
2022-08-23T22:29:30.579Z,1.00
2022-08-23T22:31:58.670Z,1.20
2022-08-23T22:34:28.198Z,1.20
2022-08-23T22:36:56.466Z,1.40
2022-08-23T22:39:25.151Z,1.50
2022-08-23T22:41:54.180Z,1.13
2022-08-23T22:44:22.532Z,1.20
2022-08-23T22:46:50.693Z,1.33
2022-08-23T22:49:18.874Z,1.27
2022-08-23T22:51:49.101Z,1.30
2022-08-23T22:54:23.302Z,1.17
2022-08-23T22:56:52.733Z,1.40
2022-08-23T22:59:22.712Z,1.20
2022-08-23T23:01:58.448Z,1.50
2022-08-23T23:04:27.800Z,1.10
2022-08-23T23:07:00.020Z,1.03
2022-08-23T23:09:28.602Z,1.40
2022-08-23T23:11:56.828Z,1.37
2022-08-23T23:14:25.203Z,1.40
2022-08-23T23:16:54.048Z,1.50
2022-08-23T23:19:40.020Z,1.20
2022-08-23T23:22:12.141Z,1.77
2022-08-23T23:24:41.059Z,1.37
2022-08-23T23:27:09.805Z,1.20
2022-08-23T23:29:38.453Z,1.40
2022-08-23T23:32:06.912Z,1.60
2022-08-23T23:34:35.112Z,1.83
2022-08-23T23:37:03.234Z,1.43
2022-08-23T23:39:32.735Z,1.40
2022-08-23T23:42:01.047Z,1.47
2022-08-23T23:44:31.098Z,2.00
2022-08-23T23:47:01.269Z,1.40
2022-08-23T23:49:32.337Z,1.80
2022-08-23T23:52:02.504Z,1.80
2022-08-23T23:54:33.718Z,1.77
2022-08-23T23:57:02.271Z,1.53
2022-08-23T23:59:30.544Z,1.70
